Time;durP1;ratioP1;P1;durP2;ratioP2;P2;SDS_P1;SDS_P2;PMS_P1;PMS_P2;Temp;Humidity;BMP_temperature;BMP_pressure;BME280_temperature;BME280_humidity;BME280_pressure;Samples;Min_cycle;Max_cycle;Signal;HPM_P1;HPM_P2
2023/03/30 00:01:55;;;;;;;36.65;19.05;;;;;;;-0.74;86.61;101665.84;4886286;29;20671;-89
2023/03/30 00:04:42;;;;;;;41.05;20.05;;;;;;;-0.76;86.21;101672.09;4893239;29;20131;-87
2023/03/30 00:07:20;;;;;;;42.65;19.23;;;;;;;-0.73;86.44;101674.59;4897783;29;20080;-89
2023/03/30 00:09:49;;;;;;;39.72;19.80;;;;;;;-1.05;86.64;101650.41;4884254;29;20077;-88
2023/03/30 00:12:27;;;;;;;40.83;19.10;;;;;;;-1.12;86.56;101643.66;4894121;29;20046;-90
2023/03/30 00:15:15;;;;;;;36.58;18.33;;;;;;;-1.03;86.79;101663.53;4882979;29;20512;-93
2023/03/30 00:17:44;;;;;;;35.10;18.52;;;;;;;-1.20;86.20;101625.47;4874182;29;20148;-90
2023/03/30 00:20:33;;;;;;;37.30;19.02;;;;;;;-1.22;87.52;101651.06;4878107;29;20116;-91
2023/03/30 00:23:01;;;;;;;38.55;19.25;;;;;;;-1.22;87.35;101618.53;4854869;29;20117;-91
2023/03/30 00:25:33;;;;;;;37.38;17.65;;;;;;;-0.96;87.06;101651.78;4863567;29;20573;-91
2023/03/30 00:28:25;;;;;;;32.58;16.77;;;;;;;-1.04;86.71;101645.97;4855477;29;20051;-91
2023/03/30 00:30:57;;;;;;;31.75;16.70;;;;;;;-1.18;86.60;101613.06;4882262;29;20080;-90
2023/03/30 00:33:23;;;;;;;31.50;17.65;;;;;;;-1.34;87.09;101611.97;4857308;29;20085;-91
2023/03/30 00:36:21;;;;;;;38.88;20.27;;;;;;;-1.13;87.46;101658.59;4847528;29;20045;-89
2023/03/30 00:39:28;;;;;;;38.20;20.13;;;;;;;-1.22;87.83;101645.78;4856999;29;20144;-92
2023/03/30 00:42:11;;;;;;;45.92;21.88;;;;;;;-1.41;88.35;101632.47;4886125;29;20049;-90
2023/03/30 00:45:17;;;;;;;46.83;21.60;;;;;;;-1.27;88.49;101661.78;4879990;29;20051;-90
2023/03/30 00:47:54;;;;;;;48.83;21.98;;;;;;;-1.19;88.40;101656.22;4871984;29;20195;-90
2023/03/30 00:50:33;;;;;;;41.65;21.00;;;;;;;-1.24;88.27;101666.13;4869423;29;20049;-90
2023/03/30 00:53:06;;;;;;;40.40;20.17;;;;;;;-1.38;87.98;101623.56;4879022;29;20051;-92
2023/03/30 00:55:32;;;;;;;42.53;20.00;;;;;;;-1.42;87.94;101622.84;4932686;29;20051;-91
2023/03/30 00:58:14;;;;;;;36.40;19.17;;;;;;;-1.17;87.75;101657.03;4926697;29;20146;-93
2023/03/30 01:01:27;;;;;;;40.60;18.65;;;;;;;-1.20;87.73;101641.31;4950469;29;20076;-91
2023/03/30 01:03:55;;;;;;;38.03;18.50;;;;;;;-1.24;87.98;101636.22;4923919;29;20098;-92
2023/03/30 01:06:23;;;;;;;39.55;18.63;;;;;;;-1.37;87.71;101607.69;4919884;29;20058;-92
2023/03/30 01:09:05;;;;;;;43.53;20.08;;;;;;;-1.11;87.33;101635.66;4923454;29;20084;-91
2023/03/30 01:11:54;;;;;;;43.47;20.27;;;;;;;-1.06;86.98;101638.97;4911816;29;20079;-92
2023/03/30 01:14:30;;;;;;;39.38;19.48;;;;;;;-1.18;86.85;101617.50;4944991;29;20047;-92
2023/03/30 01:17:15;;;;;;;47.15;19.98;;;;;;;-1.05;86.69;101647.75;4946585;29;20074;-92
2023/03/30 01:20:18;;;;;;;41.42;19.92;;;;;;;-1.06;86.63;101644.25;4913683;29;20039;-93
2023/03/30 01:23:12;;;;;;;50.17;20.13;;;;;;;-0.98;86.49;101651.88;4889986;29;20083;-93
2023/03/30 01:26:07;;;;;;;42.05;19.27;;;;;;;-1.00;86.14;101648.44;4932340;29;20047;-91
2023/03/30 01:28:59;;;;;;;50.55;24.13;;;;;;;-1.00;86.00;101648.44;4927126;29;20076;-92
2023/03/30 01:31:59;;;;;;;55.55;27.85;;;;;;;-1.12;86.56;101656.84;4941552;29;20119;-93
2023/03/30 01:35:05;;;;;;;58.95;27.90;;;;;;;-1.12;86.68;101659.50;4940895;29;20172;-92
2023/03/30 01:37:57;;;;;;;59.15;28.15;;;;;;;-1.34;87.89;101659.47;4949501;29;20499;-92
2023/03/30 01:41:13;;;;;;;62.05;30.25;;;;;;;-1.31;87.73;101646.19;4940458;29;20118;-93
2023/03/30 01:44:04;;;;;;;56.35;27.80;;;;;;;-1.33;88.47;101658.56;4938959;29;20167;-91
2023/03/30 01:47:13;;;;;;;63.38;27.58;;;;;;;-1.55;89.13;101637.41;4881326;29;20114;-89
2023/03/30 01:50:32;;;;;;;56.80;26.67;;;;;;;-1.39;88.28;101650.88;4924489;29;20150;-93
2023/03/30 01:53:58;;;;;;;60.63;26.92;;;;;;;-1.42;88.49;101661.56;4920963;29;20054;-90
2023/03/30 01:57:02;;;;;;;62.65;27.33;;;;;;;-1.33;88.10;101666.47;4920112;29;20059;-91
2023/03/30 02:00:06;;;;;;;63.28;28.40;;;;;;;-1.62;88.05;101633.31;4910025;29;20048;-93
2023/03/30 02:03:01;;;;;;;69.38;31.58;;;;;;;-1.68;87.51;101626.50;4928615;29;20047;-90
2023/03/30 02:05:32;;;;;;;62.00;29.48;;;;;;;-1.63;87.48;101632.44;4925779;29;20417;-92
2023/03/30 02:08:18;;;;;;;73.10;31.33;;;;;;;-1.69;87.31;101632.66;4926662;29;20036;-91
2023/03/30 02:11:11;;;;;;;69.40;31.00;;;;;;;-1.60;87.38;101640.22;4908648;29;20069;-93
2023/03/30 02:13:41;;;;;;;65.50;30.42;;;;;;;-1.78;87.74;101647.09;4904525;29;20393;-91
2023/03/30 02:16:30;;;;;;;71.25;31.88;;;;;;;-1.74;87.39;101634.63;4907892;29;20495;-93
2023/03/30 02:19:18;;;;;;;59.85;27.50;;;;;;;-1.86;87.46;101630.69;4904378;29;20472;-91
2023/03/30 02:21:56;;;;;;;54.58;28.00;;;;;;;-1.63;86.94;101658.81;4908183;29;20071;-89
2023/03/30 02:24:37;;;;;;;59.55;25.85;;;;;;;-1.52;86.80;101675.09;4901565;29;20047;-92
2023/03/30 02:27:26;;;;;;;54.83;24.85;;;;;;;-1.66;86.76;101677.41;4892895;29;20064;-89
2023/03/30 02:29:55;;;;;;;53.25;22.92;;;;;;;-1.76;86.45;101657.56;4914230;29;20492;-91
2023/03/30 02:33:18;;;;;;;46.78;20.25;;;;;;;-1.91;86.31;101644.03;4923146;29;20039;-90
2023/03/30 02:36:30;;;;;;;39.00;18.90;;;;;;;-1.97;86.14;101644.28;4894354;29;20036;-91
2023/03/30 02:39:40;;;;;;;41.47;19.50;;;;;;;-1.77;86.19;101677.78;4840774;29;20080;-90
2023/03/30 02:46:22;;;;;;;36.30;17.58;;;;;;;-2.07;85.96;101642.03;4907514;29;20058;-90
2023/03/30 02:49:34;;;;;;;31.60;16.45;;;;;;;-1.79;85.10;101689.31;4893150;29;20157;-94
2023/03/30 02:52:38;;;;;;;34.47;15.57;;;;;;;-1.89;85.12;101682.66;4889510;29;21978;-91
2023/03/30 02:55:56;;;;;;;27.88;13.32;;;;;;;-2.18;84.50;101623.94;4898620;29;20049;-92
2023/03/30 03:02:05;;;;;;;21.73;10.85;;;;;;;-1.83;84.09;101682.44;4894674;29;19962;-92
2023/03/30 03:05:46;;;;;;;25.60;11.52;;;;;;;-2.08;83.55;101633.25;4885923;29;20053;-93
2023/03/30 03:09:18;;;;;;;24.10;11.27;;;;;;;-1.75;83.42;101685.66;4892725;29;20049;-92
2023/03/30 03:14:51;;;;;;;28.27;13.00;;;;;;;-1.87;83.45;101692.25;4870701;29;20511;-89
2023/03/30 03:17:21;;;;;;;27.60;12.38;;;;;;;-1.97;82.53;101660.09;4862759;29;20041;-88
2023/03/30 03:20:12;;;;;;;27.00;12.52;;;;;;;-2.06;82.09;101655.16;4877006;29;20029;-88
2023/03/30 03:22:41;;;;;;;25.50;12.73;;;;;;;-2.17;81.97;101646.78;4882132;29;20116;-92
2023/03/30 03:25:43;;;;;;;22.83;11.93;;;;;;;-2.29;82.19;101637.53;4892507;29;20064;-93
2023/03/30 03:28:20;;;;;;;30.60;13.27;;;;;;;-2.10;81.80;101677.25;4851927;29;20048;-92
2023/03/30 03:31:37;;;;;;;27.05;12.35;;;;;;;-2.21;81.62;101671.50;4875166;29;20053;-92
2023/03/30 03:34:54;;;;;;;22.33;11.23;;;;;;;-2.36;81.79;101650.06;4880649;29;20117;-93
2023/03/30 03:38:09;;;;;;;21.33;10.60;;;;;;;-2.01;82.33;101715.59;4926278;29;20067;-90
2023/03/30 03:41:34;;;;;;;23.50;11.25;;;;;;;-2.31;82.38;101659.56;4916707;29;20032;-89
2023/03/30 03:58:43;;;;;;;31.17;11.27;;;;;;;-2.21;82.42;101690.78;4950052;23;20428;-93
2023/03/30 04:01:44;;;;;;;24.75;10.80;;;;;;;-2.19;83.03;101722.38;4910226;29;20061;-93
2023/03/30 04:04:12;;;;;;;27.40;11.38;;;;;;;-2.24;82.74;101711.13;4917597;29;20055;-93
2023/03/30 04:07:08;;;;;;;28.60;12.77;;;;;;;-2.28;82.68;101697.19;4914437;29;20135;-92
2023/03/30 04:10:00;;;;;;;24.77;11.68;;;;;;;-2.25;82.63;101685.69;4905612;29;20040;-92
2023/03/30 04:12:32;;;;;;;30.20;12.45;;;;;;;-2.31;82.29;101696.47;4890080;29;20092;-92
2023/03/30 04:15:40;;;;;;;27.63;13.55;;;;;;;-2.23;81.83;101689.13;4920749;23;20125;-89
2023/03/30 04:19:11;;;;;;;25.02;12.07;;;;;;;-1.86;81.04;101730.00;5055836;23;20067;-90
2023/03/30 04:25:28;;;;;;;20.23;10.65;;;;;;;-2.08;80.62;101683.34;4905518;29;20533;-91
2023/03/30 04:27:55;;;;;;;37.97;12.00;;;;;;;-1.95;80.47;101700.41;4911109;29;20436;-90
2023/03/30 04:30:23;;;;;;;24.15;11.57;;;;;;;-1.98;80.74;101695.25;4882741;29;20127;-91
2023/03/30 04:33:03;;;;;;;23.70;12.38;;;;;;;-1.99;80.34;101709.34;4918170;29;20056;-91
2023/03/30 04:35:41;;;;;;;23.25;12.07;;;;;;;-1.65;80.05;101742.41;4886919;29;20449;-91
2023/03/30 04:38:06;;;;;;;25.13;12.07;;;;;;;-1.60;79.61;101742.22;4836820;29;20044;-93
2023/03/30 04:40:39;;;;;;;30.42;12.90;;;;;;;-1.59;78.75;101729.00;4903656;29;20032;-90
2023/03/30 04:43:06;;;;;;;32.80;11.88;;;;;;;-1.67;78.06;101717.00;4899879;29;20504;-92
2023/03/30 04:45:33;;;;;;;29.80;12.20;;;;;;;-1.47;77.84;101750.56;4893889;29;20075;-92
2023/03/30 04:48:04;;;;;;;27.80;12.05;;;;;;;-1.57;76.27;101716.63;4883772;29;20134;-91
2023/03/30 04:50:35;;;;;;;27.85;11.77;;;;;;;-1.51;75.67;101726.91;4899961;29;20054;-90
2023/03/30 04:53:01;;;;;;;28.17;12.30;;;;;;;-1.30;75.20;101743.72;4904140;29;20433;-90
2023/03/30 04:55:31;;;;;;;35.90;12.80;;;;;;;-1.39;75.10;101708.91;4900618;29;20082;-91
2023/03/30 04:57:57;;;;;;;39.88;13.23;;;;;;;-1.31;73.48;101738.53;4916179;29;20141;-91
2023/03/30 05:00:26;;;;;;;24.20;11.80;;;;;;;-1.31;72.65;101722.69;4881223;29;20033;-92
2023/03/30 05:02:55;;;;;;;30.42;12.43;;;;;;;-1.20;72.08;101728.38;4906923;29;20036;-89
2023/03/30 05:05:23;;;;;;;21.70;10.50;;;;;;;-1.25;70.57;101711.88;4893388;29;20040;-92
2023/03/30 05:07:49;;;;;;;23.05;9.30;;;;;;;-1.02;69.98;101732.09;4891208;29;20036;-90
2023/03/30 05:10:28;;;;;;;26.40;10.50;;;;;;;-0.71;69.53;101744.94;4878328;29;20071;-90
2023/03/30 05:12:59;;;;;;;21.70;10.40;;;;;;;-0.90;68.83;101707.00;4914215;29;20040;-91
2023/03/30 05:15:30;;;;;;;24.25;10.23;;;;;;;-0.71;68.92;101734.38;4906231;29;20055;-90
2023/03/30 05:18:33;;;;;;;27.77;10.98;;;;;;;-0.52;69.00;101733.63;4911424;29;20393;-94
2023/03/30 05:21:58;;;;;;;26.00;11.07;;;;;;;-0.47;68.26;101726.34;4928469;29;20054;-90
2023/03/30 05:28:33;;;;;;;23.95;12.05;;;;;;;0.02;65.89;101749.84;4906246;29;20057;-91
2023/03/30 05:31:46;;;;;;;24.90;11.32;;;;;;;-0.27;63.83;101697.31;4901183;29;20040;-93
2023/03/30 05:35:05;;;;;;;22.45;10.75;;;;;;;0.15;63.15;101757.19;5034947;23;20039;-91
2023/03/30 05:38:14;;;;;;;29.00;10.65;;;;;;;0.06;63.08;101712.63;4954451;29;20122;-94
2023/03/30 05:41:08;;;;;;;25.02;11.45;;;;;;;0.02;64.13;101718.13;4964642;28;20043;-93
2023/03/30 06:00:05;;;;;;;24.52;10.15;;;;;;;0.98;59.81;101736.66;4868343;29;20060;-93
2023/03/30 06:04:07;;;;;;;22.67;10.18;;;;;;;1.37;58.96;101768.31;4863101;29;20201;-91
2023/03/30 06:09:58;;;;;;;19.42;9.68;;;;;;;1.68;57.22;101774.78;4927786;29;20044;-95
2023/03/30 06:12:25;;;;;;;24.30;10.10;;;;;;;2.09;56.51;101779.78;4912137;29;20040;-92
2023/03/30 06:16:04;;;;;;;26.73;10.05;;;;;;;2.30;55.97;101746.81;4893108;29;20052;-90
2023/03/30 06:19:04;;;;;;;21.55;9.60;;;;;;;2.32;54.80;101744.94;4924073;29;20040;-95
2023/03/30 06:22:20;;;;;;;18.88;10.20;;;;;;;2.52;54.08;101750.97;4931946;29;20044;-93
2023/03/30 06:25:45;;;;;;;22.02;10.43;;;;;;;3.21;52.66;101783.53;4923461;29;20040;-94
2023/03/30 06:36:43;;;;;;;16.45;9.05;;;;;;;3.34;51.73;101756.16;4967247;23;20052;-91
2023/03/30 06:39:09;;;;;;;18.83;9.65;;;;;;;3.50;51.58;101747.31;4897764;29;20062;-92
2023/03/30 06:41:34;;;;;;;19.90;9.82;;;;;;;3.77;51.49;101752.84;4944948;29;20039;-94
2023/03/30 06:44:01;;;;;;;24.50;10.75;;;;;;;4.22;51.00;101740.38;4932971;29;20147;-91
2023/03/30 06:46:30;;;;;;;24.50;9.65;;;;;;;4.41;49.38;101742.78;4933430;29;20055;-89
2023/03/30 06:48:55;;;;;;;23.30;9.68;;;;;;;5.04;48.58;101779.66;4932108;29;20067;-88
2023/03/30 06:51:22;;;;;;;28.45;9.95;;;;;;;5.19;47.97;101763.63;4934635;29;20206;-87
2023/03/30 06:56:26;;;;;;;17.88;10.25;;;;;;;6.52;46.41;101778.69;5055667;23;20145;-91
2023/03/30 06:58:52;;;;;;;25.90;8.75;;;;;;;7.23;44.91;101778.16;4909944;29;20048;-91
2023/03/30 07:01:19;;;;;;;;;;;;;;;7.18;42.83;101768.63;4908425;29;20056;-90
2023/03/30 07:03:46;;;;;;;19.33;9.57;;;;;;;7.62;42.64;101739.56;4920746;29;19927;-92
2023/03/30 07:06:13;;;;;;;20.50;10.20;;;;;;;8.33;41.19;101758.25;4896175;29;20045;-92
2023/03/30 07:08:58;;;;;;;20.23;10.50;;;;;;;8.55;40.82;101744.06;4910377;29;20102;-94
2023/03/30 07:11:29;;;;;;;21.38;10.32;;;;;;;9.08;39.68;101758.56;4899476;29;20116;-92
2023/03/30 07:14:32;;;;;;;22.52;10.50;;;;;;;9.52;38.53;101740.59;4909494;29;20036;-91
2023/03/30 07:17:04;;;;;;;27.17;11.23;;;;;;;10.14;39.13;101768.53;4916851;29;20067;-90
2023/03/30 07:19:31;;;;;;;22.27;12.55;;;;;;;10.21;38.07;101746.47;4895310;29;20040;-90
2023/03/30 07:22:00;;;;;;;25.58;13.07;;;;;;;10.77;37.87;101729.97;4888536;29;20068;-90
2023/03/30 07:24:30;;;;;;;35.83;15.18;;;;;;;11.48;35.64;101727.13;4926749;29;20080;-93
2023/03/30 07:27:08;;;;;;;39.95;16.80;;;;;;;12.18;34.79;101735.06;4919947;29;20043;-94
2023/03/30 07:29:36;;;;;;;24.13;13.27;;;;;;;12.70;33.93;101735.44;4933805;29;20107;-87
2023/03/30 07:32:04;;;;;;;18.55;10.68;;;;;;;13.15;32.27;101731.09;4885022;29;20044;-88
2023/03/30 07:34:32;;;;;;;18.33;9.38;;;;;;;13.13;30.37;101746.59;4901179;29;20051;-90
2023/03/30 07:36:58;;;;;;;19.50;9.65;;;;;;;13.35;31.03;101732.72;4901244;29;20519;-88
2023/03/30 07:39:25;;;;;;;12.80;8.15;;;;;;;13.92;29.24;101737.78;4910102;29;20127;-88
2023/03/30 07:41:50;;;;;;;;;;;;;;;14.30;28.38;101743.78;4885470;29;20073;-90
2023/03/30 07:44:32;;;;;;;10.73;5.90;;;;;;;14.25;26.09;101746.13;4905813;29;19923;-94
2023/03/30 07:47:05;;;;;;;10.02;3.75;;;;;;;14.23;23.96;101743.56;4909041;29;20060;-92
2023/03/30 07:49:41;;;;;;;8.23;3.33;;;;;;;14.43;23.23;101727.16;4896908;29;20138;-88
2023/03/30 07:52:10;;;;;;;4.95;3.10;;;;;;;14.41;22.64;101729.16;4900746;29;20481;-88
2023/03/30 07:54:36;;;;;;;6.90;3.20;;;;;;;14.90;22.75;101733.00;4893215;29;20108;-89
2023/03/30 07:57:02;;;;;;;;;;;;;;;15.02;22.94;101738.13;4893804;29;20056;-87
2023/03/30 07:59:27;;;;;;;5.75;3.47;;;;;;;15.65;22.18;101715.88;4886850;29;19930;-86
2023/03/30 08:01:53;;;;;;;;;;;;;;;15.48;21.85;101735.88;4895929;29;20481;-86
2023/03/30 08:04:24;;;;;;;5.30;3.65;;;;;;;15.58;21.60;101695.91;4906006;29;20026;-84
2023/03/30 08:06:51;;;;;;;7.68;3.50;;;;;;;15.44;20.98;101718.25;4905944;29;20119;-86
2023/03/30 08:09:17;;;;;;;7.43;3.38;;;;;;;16.48;20.44;101725.63;4877224;29;20044;-84
2023/03/30 08:11:43;;;;;;;;;;;;;;;16.70;19.56;101729.50;4886527;29;20049;-84
2023/03/30 08:14:12;;;;;;;11.02;3.83;;;;;;;17.22;18.93;101717.22;4897286;29;19927;-94
2023/03/30 08:16:38;;;;;;;9.05;3.40;;;;;;;17.99;18.61;101732.66;4906626;29;20060;-92
2023/03/30 08:19:04;;;;;;;7.38;3.20;;;;;;;18.61;16.98;101726.91;4899239;29;20370;-91
2023/03/30 08:21:32;;;;;;;8.50;3.35;;;;;;;18.69;16.93;101723.25;4894192;29;20044;-89
2023/03/30 08:23:58;;;;;;;13.05;6.03;;;;;;;18.85;17.30;101687.66;4896540;29;20254;-92
2023/03/30 08:26:25;;;;;;;6.65;3.60;;;;;;;18.71;15.72;101738.38;4885433;29;20131;-89
2023/03/30 08:28:51;;;;;;;8.52;3.42;;;;;;;18.55;15.34;101725.78;4889250;29;20044;-89
2023/03/30 08:31:20;;;;;;;12.27;3.55;;;;;;;19.52;15.25;101702.00;4874222;29;20040;-88
2023/03/30 08:33:49;;;;;;;6.53;4.05;;;;;;;18.81;15.17;101694.53;4887395;29;20450;-93
2023/03/30 08:36:21;;;;;;;5.97;3.33;;;;;;;20.34;15.25;101685.06;4877995;29;20058;-92
2023/03/30 08:38:55;;;;;;;6.85;3.03;;;;;;;19.18;15.99;101690.78;4910840;29;20044;-95
2023/03/30 08:42:00;;;;;;;4.82;3.10;;;;;;;20.17;15.01;101687.25;4893566;29;20132;-90
2023/03/30 08:44:34;;;;;;;7.03;3.40;;;;;;;20.04;14.98;101714.47;4903628;29;20060;-93
2023/03/30 08:47:07;;;;;;;4.93;3.08;;;;;;;20.92;14.17;101697.59;4898838;29;20063;-90
2023/03/30 08:49:42;;;;;;;3.70;2.60;;;;;;;20.73;13.58;101693.72;4894432;29;20067;-92
2023/03/30 08:52:20;;;;;;;4.17;2.77;;;;;;;19.38;14.92;101682.78;4902409;29;20209;-92
2023/03/30 08:54:47;;;;;;;7.70;2.85;;;;;;;20.65;13.80;101671.00;4894591;29;20059;-88
2023/03/30 08:57:32;;;;;;;8.50;3.08;;;;;;;21.45;13.37;101675.88;4908479;29;20147;-88
2023/03/30 09:00:42;;;;;;;5.57;2.92;;;;;;;22.02;13.09;101655.22;4907608;29;20058;-91
2023/03/30 09:03:18;;;;;;;5.28;2.88;;;;;;;21.95;13.29;101668.09;4802977;29;20102;-91
2023/03/30 09:05:55;;;;;;;8.25;3.25;;;;;;;21.45;13.59;101675.88;4796676;29;20050;-90
2023/03/30 09:08:27;;;;;;;5.05;2.80;;;;;;;22.64;12.99;101671.31;4860558;29;20131;-93
2023/03/30 09:11:01;;;;;;;4.78;2.85;;;;;;;24.15;11.07;101677.97;4892338;29;20465;-92
2023/03/30 09:13:36;;;;;;;9.50;3.00;;;;;;;24.95;10.96;101672.38;4894425;29;20056;-89
2023/03/30 09:16:27;;;;;;;6.65;3.10;;;;;;;24.48;11.40;101676.81;4908239;29;20446;-93
2023/03/30 09:18:57;;;;;;;5.85;3.00;;;;;;;23.94;11.50;101669.06;4879103;29;20224;-91
2023/03/30 09:21:27;;;;;;;6.57;2.90;;;;;;;23.35;11.98;101668.47;4896661;29;20049;-90
2023/03/30 09:23:57;;;;;;;5.95;2.90;;;;;;;24.76;10.96;101659.75;4891468;29;20048;-92
2023/03/30 09:26:40;;;;;;;6.28;2.65;;;;;;;25.31;10.76;101665.16;4902680;29;20048;-91
2023/03/30 09:29:12;;;;;;;4.55;2.78;;;;;;;26.91;10.01;101648.44;4918408;29;20036;-88
2023/03/30 09:31:47;;;;;;;5.80;3.83;;;;;;;25.89;10.19;101658.94;4896070;29;20497;-89
2023/03/30 09:34:37;;;;;;;5.22;2.78;;;;;;;26.85;10.17;101654.94;4903522;29;20051;-88
2023/03/30 09:37:30;;;;;;;7.68;3.28;;;;;;;26.90;10.06;101641.25;4910965;29;20043;-86
2023/03/30 09:39:57;;;;;;;7.63;3.97;;;;;;;27.03;10.30;101640.13;4891784;29;20040;-85
2023/03/30 09:42:55;;;;;;;4.82;3.00;;;;;;;26.31;10.10;101656.00;4898306;29;20065;-89
2023/03/30 09:45:34;;;;;;;7.00;3.13;;;;;;;27.09;9.76;101644.63;4904741;29;20048;-86
2023/03/30 09:48:07;;;;;;;5.38;2.83;;;;;;;28.60;9.46;101634.59;4889054;29;20032;-86
2023/03/30 09:50:38;;;;;;;4.68;3.13;;;;;;;27.25;9.45;101638.34;4888487;29;20139;-87
2023/03/30 09:53:16;;;;;;;8.40;2.50;;;;;;;28.38;9.19;101629.91;4900744;29;20118;-87
2023/03/30 09:55:52;;;;;;;5.32;2.80;;;;;;;28.60;8.94;101623.53;4878426;29;20115;-85
2023/03/30 09:58:20;;;;;;;7.18;3.05;;;;;;;30.78;8.09;101626.59;4891921;29;20060;-85
2023/03/30 10:00:49;;;;;;;5.35;2.92;;;;;;;29.98;8.29;101619.28;4884252;29;20036;-87
2023/03/30 10:03:21;;;;;;;5.55;2.75;;;;;;;29.37;8.14;101603.03;4909756;29;20153;-86
2023/03/30 10:06:04;;;;;;;4.38;2.88;;;;;;;26.83;9.90;101618.50;4907226;29;20039;-85
2023/03/30 10:08:30;;;;;;;7.65;3.10;;;;;;;29.01;8.83;101626.78;4912887;29;20144;-84
2023/03/30 10:10:57;;;;;;;7.43;3.40;;;;;;;29.33;8.25;101612.13;4877437;29;20088;-84
2023/03/30 10:13:31;;;;;;;8.00;3.20;;;;;;;28.55;8.91;101615.19;4889275;29;20044;-85
2023/03/30 10:16:06;;;;;;;8.80;3.88;;;;;;;30.13;8.29;101615.75;4894023;29;20036;-86
2023/03/30 11:10:21;;;;;;;6.85;2.97;;;;;;;25.57;10.47;101572.22;5705155;23;20070;-87
2023/03/30 11:13:10;;;;;;;7.85;3.35;;;;;;;23.62;11.56;101558.47;4971065;28;20054;-88
2023/03/30 11:16:10;;;;;;;6.88;3.00;;;;;;;23.96;11.89;101562.56;4963330;28;20042;-88
2023/03/30 11:18:47;;;;;;;5.00;3.10;;;;;;;23.53;11.84;101571.66;4949918;28;20507;-87
2023/03/30 11:21:40;;;;;;;5.63;3.35;;;;;;;23.31;12.11;101554.72;4970212;28;20038;-86
2023/03/30 11:24:14;;;;;;;6.35;3.72;;;;;;;22.40;12.64;101563.31;4944166;28;20183;-87
2023/03/30 11:26:53;;;;;;;6.97;3.20;;;;;;;23.49;11.97;101551.19;4954836;28;20420;-88
2023/03/30 11:29:25;;;;;;;4.82;3.03;;;;;;;23.45;12.03;101541.72;4937844;28;20062;-86
2023/03/30 11:31:54;;;;;;;5.90;3.08;;;;;;;22.75;12.33;101539.06;4972211;28;20081;-87
2023/03/30 11:34:40;;;;;;;5.38;3.35;;;;;;;21.73;12.82;101533.38;4968838;28;20070;-87
2023/03/30 11:37:30;;;;;;;7.95;3.10;;;;;;;21.58;13.22;101528.13;4971823;28;20042;-89
2023/03/30 11:40:01;;;;;;;6.32;3.28;;;;;;;19.91;14.65;101505.09;4959537;28;20037;-86
2023/03/30 11:42:30;;;;;;;6.28;3.05;;;;;;;20.34;14.45;101521.22;4950574;28;20047;-87
2023/03/30 11:44:56;;;;;;;8.15;3.22;;;;;;;20.52;14.62;101522.53;4940550;28;20047;-87
2023/03/30 11:47:42;;;;;;;5.00;2.83;;;;;;;19.61;14.42;101540.75;4935501;28;20054;-87
2023/03/30 11:50:44;;;;;;;7.00;2.70;;;;;;;19.09;15.15;101531.13;4931357;28;20043;-87
2023/03/30 11:53:44;;;;;;;5.28;3.03;;;;;;;18.76;15.78;101526.19;4948228;28;20078;-86
2023/03/30 11:56:50;;;;;;;5.57;2.88;;;;;;;18.49;16.03;101526.91;4954156;28;20074;-87
2023/03/30 11:59:43;;;;;;;5.80;3.13;;;;;;;18.18;16.84;101525.28;4935690;28;20045;-86
2023/03/30 12:02:27;;;;;;;6.53;3.45;;;;;;;17.96;16.93;101518.09;4973722;28;20047;-87
2023/03/30 12:05:20;;;;;;;5.80;3.10;;;;;;;17.50;16.66;101510.94;4969346;28;20034;-88
2023/03/30 12:07:58;;;;;;;7.55;3.25;;;;;;;17.01;16.97;101500.53;4939869;28;20039;-87
2023/03/30 12:10:56;;;;;;;4.05;2.88;;;;;;;17.27;16.69;101505.56;4956460;28;20487;-87
2023/03/30 12:13:22;;;;;;;6.30;3.20;;;;;;;16.97;17.52;101513.63;4928471;28;20115;-87
2023/03/30 12:15:50;;;;;;;;;;;;;;;17.20;17.47;101510.03;4956845;28;20051;-87
2023/03/30 12:18:40;;;;;;;6.25;2.95;;;;;;;17.47;17.11;101514.88;4968913;28;19984;-91
2023/03/30 12:21:26;;;;;;;4.40;2.65;;;;;;;16.76;17.99;101488.97;4931475;28;20095;-88
2023/03/30 12:24:13;;;;;;;5.20;2.80;;;;;;;16.49;17.75;101502.06;4931030;28;20039;-88
2023/03/30 12:26:47;;;;;;;6.00;2.78;;;;;;;15.36;18.90;101505.88;4966981;28;20038;-88
2023/03/30 12:29:16;;;;;;;5.38;2.60;;;;;;;15.46;19.11;101510.25;4945032;28;20066;-87
2023/03/30 12:32:01;;;;;;;5.10;2.95;;;;;;;15.87;18.95;101512.88;4944207;28;20280;-88
2023/03/30 12:34:32;;;;;;;;;;;;;;;15.66;19.45;101502.56;4961601;28;20031;-89
2023/03/30 12:37:01;;;;;;;7.50;3.20;;;;;;;15.68;19.48;101504.09;4935394;28;19926;-90
2023/03/30 12:39:53;;;;;;;5.00;3.00;;;;;;;15.53;19.33;101505.84;4949410;28;20055;-87
2023/03/30 12:42:26;;;;;;;6.13;3.17;;;;;;;15.61;19.46;101508.53;4945587;28;20047;-90
2023/03/30 12:45:19;;;;;;;7.03;2.83;;;;;;;15.19;19.10;101504.19;4946974;28;20148;-89
2023/03/30 12:48:13;;;;;;;7.70;2.80;;;;;;;15.27;19.22;101501.47;4948196;28;20047;-89
2023/03/30 12:50:41;;;;;;;8.48;3.30;;;;;;;15.06;19.92;101498.47;4969770;28;20038;-87
2023/03/30 12:53:30;;;;;;;5.88;2.90;;;;;;;14.57;20.47;101504.69;4969923;28;20047;-89
2023/03/30 12:56:11;;;;;;;5.25;2.53;;;;;;;14.30;20.02;101473.31;4971888;28;20057;-88
2023/03/30 12:58:55;;;;;;;5.85;2.67;;;;;;;14.52;20.23;101486.22;4933501;28;20586;-89
2023/03/30 13:01:40;;;;;;;6.97;2.83;;;;;;;14.47;20.27;101472.34;4952254;28;20038;-89
2023/03/30 13:04:08;;;;;;;5.85;2.97;;;;;;;14.24;20.70;101482.09;4964078;28;20062;-86
2023/03/30 13:06:39;;;;;;;5.18;2.75;;;;;;;13.86;19.94;101481.59;4937941;28;20039;-87
2023/03/30 13:09:22;;;;;;;4.30;2.45;;;;;;;13.84;20.18;101478.25;4947764;28;20122;-88
2023/03/30 13:11:54;;;;;;;5.65;2.50;;;;;;;13.61;20.35;101473.41;4969848;28;20082;-90
2023/03/30 13:14:26;;;;;;;5.43;2.95;;;;;;;13.52;20.62;101458.16;4967437;28;20077;-86
2023/03/30 13:16:52;;;;;;;11.27;3.78;;;;;;;13.86;20.66;101470.78;4954223;28;20137;-90
2023/03/30 13:19:27;;;;;;;5.25;2.70;;;;;;;13.64;20.83;101459.56;4973567;28;20120;-91
2023/03/30 13:22:17;;;;;;;5.38;2.72;;;;;;;13.85;20.59;101461.00;4950732;28;20039;-90
2023/03/30 13:25:20;;;;;;;5.15;2.95;;;;;;;13.36;20.67;101455.38;4972725;28;20035;-91
2023/03/30 13:27:55;;;;;;;5.30;2.72;;;;;;;13.54;20.82;101448.03;4952575;28;20027;-90
2023/03/30 13:30:28;;;;;;;6.03;2.78;;;;;;;13.70;19.23;101434.59;4961438;28;20051;-92
2023/03/30 13:33:16;;;;;;;;;;;;;;;13.38;19.94;101442.53;4949814;28;20118;-92
2023/03/30 13:36:12;;;;;;;5.72;3.03;;;;;;;13.34;20.06;101446.56;4932846;28;19910;-91
2023/03/30 13:38:47;;;;;;;4.30;2.47;;;;;;;13.49;19.69;101444.97;4954087;28;20062;-93
2023/03/30 13:41:36;;;;;;;4.50;2.80;;;;;;;13.33;20.85;101444.88;4963339;28;20047;-93
2023/03/30 13:44:31;;;;;;;5.50;3.10;;;;;;;13.29;20.90;101447.88;4960698;28;20047;-93
2023/03/30 13:47:40;;;;;;;5.57;2.58;;;;;;;13.33;20.46;101434.94;4979886;28;20038;-93
2023/03/30 13:50:26;;;;;;;4.32;2.60;;;;;;;12.82;20.40;101423.06;4949490;28;20116;-92
2023/03/30 13:53:04;;;;;;;10.15;4.15;;;;;;;12.85;21.19;101422.75;4957478;28;20058;-90
2023/03/30 13:55:41;;;;;;;7.72;2.80;;;;;;;12.87;21.19;101428.84;4930530;28;20051;-91
2023/03/30 13:58:31;;;;;;;4.88;2.53;;;;;;;12.77;21.18;101423.53;4945654;28;20058;-90
2023/03/30 14:01:11;;;;;;;8.43;3.25;;;;;;;12.67;21.30;101422.81;4932845;28;20520;-90
2023/03/30 14:03:56;;;;;;;7.68;3.60;;;;;;;12.85;20.83;101420.94;4940973;28;20046;-88
2023/03/30 14:06:25;;;;;;;4.78;2.92;;;;;;;12.65;20.84;101398.66;4933476;28;20049;-88
2023/03/30 14:08:58;;;;;;;5.00;3.00;;;;;;;12.71;20.70;101417.91;4945245;28;20047;-88
2023/03/30 14:12:18;;;;;;;5.63;3.10;;;;;;;12.98;20.38;101408.84;4939330;28;20628;-89
2023/03/30 14:14:49;;;;;;;7.60;3.08;;;;;;;12.82;19.67;101405.03;4948866;29;20051;-89
2023/03/30 14:17:22;;;;;;;7.22;3.15;;;;;;;12.95;19.76;101395.69;4940268;29;20107;-89
2023/03/30 14:20:06;;;;;;;8.32;3.13;;;;;;;13.05;19.85;101399.97;4940649;29;20067;-90
2023/03/30 14:22:37;;;;;;;7.45;3.25;;;;;;;13.02;20.43;101407.53;4932875;29;20079;-91
2023/03/30 14:25:05;;;;;;;5.78;3.00;;;;;;;12.88;21.05;101398.16;4930107;29;20050;-90